createdAt,value
2019-01-25T00:00:17.021Z,0.00
2019-01-25T00:01:17.034Z,0.00
2019-01-25T00:02:16.942Z,0.00
2019-01-25T00:03:16.902Z,0.00
2019-01-25T00:04:16.848Z,0.00
2019-01-25T00:05:16.798Z,0.00
2019-01-25T00:06:16.763Z,0.00
2019-01-25T00:07:16.754Z,0.00
2019-01-25T00:08:16.658Z,0.00
2019-01-25T00:09:16.620Z,0.00
2019-01-25T00:10:16.584Z,0.00
2019-01-25T00:11:16.526Z,0.00
2019-01-25T00:12:16.487Z,0.00
2019-01-25T00:13:16.448Z,0.00
2019-01-25T00:14:16.398Z,0.00
2019-01-25T00:15:16.347Z,0.00
2019-01-25T00:16:16.303Z,0.00
2019-01-25T00:17:16.354Z,0.00
2019-01-25T00:18:16.214Z,0.00
2019-01-25T00:19:16.218Z,0.00
2019-01-25T00:20:16.122Z,0.00
2019-01-25T00:21:16.079Z,0.00
2019-01-25T00:22:16.035Z,0.00
2019-01-25T00:23:15.994Z,0.00
2019-01-25T00:24:15.952Z,0.00
2019-01-25T00:25:15.900Z,0.00
2019-01-25T00:26:15.863Z,0.00
2019-01-25T00:27:15.809Z,0.00
2019-01-25T00:28:15.763Z,0.00
2019-01-25T00:29:15.726Z,0.00
2019-01-25T00:30:15.682Z,0.00
2019-01-25T00:31:15.635Z,0.00
2019-01-25T00:32:15.582Z,0.00
2019-01-25T00:33:15.552Z,0.00
2019-01-25T00:34:15.522Z,0.00
2019-01-25T00:35:15.454Z,0.00
2019-01-25T00:36:15.486Z,0.00
2019-01-25T00:37:15.365Z,0.00
2019-01-25T00:38:15.339Z,0.00
2019-01-25T00:39:15.284Z,0.00
2019-01-25T00:40:15.225Z,0.00
2019-01-25T00:41:15.181Z,0.00
2019-01-25T00:42:15.130Z,0.00
2019-01-25T00:43:15.091Z,0.00
2019-01-25T00:44:15.055Z,0.00
2019-01-25T00:45:15.001Z,0.00
2019-01-25T00:46:14.964Z,0.00
2019-01-25T00:47:14.916Z,0.00
2019-01-25T00:48:14.870Z,0.00
2019-01-25T00:49:14.831Z,0.00
2019-01-25T00:50:14.776Z,0.00
2019-01-25T00:51:14.732Z,0.00
2019-01-25T00:52:14.689Z,0.00
2019-01-25T00:53:14.640Z,0.00
2019-01-25T00:54:14.595Z,0.00
2019-01-25T00:55:14.559Z,0.00
2019-01-25T00:56:14.507Z,0.00
2019-01-25T00:57:14.469Z,0.00
2019-01-25T00:58:14.416Z,0.00
2019-01-25T00:59:14.382Z,0.00
2019-01-25T01:00:14.323Z,0.00
2019-01-25T01:01:14.282Z,0.00
2019-01-25T01:02:14.239Z,0.00
2019-01-25T01:03:14.196Z,0.00
2019-01-25T01:04:14.138Z,0.00
2019-01-25T01:05:14.104Z,0.00
2019-01-25T01:06:14.067Z,0.00
2019-01-25T01:07:14.014Z,0.00
2019-01-25T01:08:13.965Z,0.00
2019-01-25T01:09:13.923Z,0.00
2019-01-25T01:10:14.409Z,0.00
2019-01-25T01:11:13.852Z,0.00
2019-01-25T01:12:13.789Z,0.00
2019-01-25T01:13:13.747Z,0.00
2019-01-25T01:14:13.690Z,0.00
2019-01-25T01:15:13.646Z,0.00
2019-01-25T01:16:13.605Z,0.00
2019-01-25T01:17:13.555Z,0.00
2019-01-25T01:18:13.513Z,0.00
2019-01-25T01:19:13.501Z,0.00
2019-01-25T01:20:13.425Z,0.00
2019-01-25T01:21:13.381Z,0.00
2019-01-25T01:22:13.334Z,0.00
2019-01-25T01:23:13.305Z,0.00
2019-01-25T01:24:13.256Z,0.00
2019-01-25T01:25:13.207Z,0.00
2019-01-25T01:26:13.156Z,0.00
2019-01-25T01:27:13.110Z,0.00
2019-01-25T01:28:13.078Z,0.00
2019-01-25T01:29:13.036Z,0.00
2019-01-25T01:30:12.971Z,0.00
2019-01-25T01:31:12.941Z,0.00
2019-01-25T01:32:12.887Z,0.00
2019-01-25T01:33:12.848Z,0.00
2019-01-25T01:34:12.791Z,0.00
2019-01-25T01:35:12.758Z,0.00
2019-01-25T01:36:12.705Z,0.00
2019-01-25T01:37:12.671Z,0.00
2019-01-25T01:38:12.618Z,0.00
2019-01-25T01:39:12.569Z,0.00
2019-01-25T01:40:12.522Z,0.00
2019-01-25T01:41:12.481Z,0.00
2019-01-25T01:42:12.439Z,0.00
2019-01-25T01:43:12.398Z,0.00
2019-01-25T01:44:12.351Z,0.00
2019-01-25T01:45:12.302Z,0.00
2019-01-25T01:46:12.260Z,0.00
2019-01-25T01:47:12.216Z,0.00
2019-01-25T01:48:12.165Z,0.00
2019-01-25T01:49:12.148Z,0.00
2019-01-25T01:50:12.074Z,0.00
2019-01-25T01:51:12.038Z,0.00
2019-01-25T01:52:11.981Z,0.00
2019-01-25T01:53:11.941Z,0.00
2019-01-25T01:54:11.906Z,0.00
2019-01-25T01:55:11.849Z,0.00
2019-01-25T01:56:11.818Z,0.00
2019-01-25T01:57:11.847Z,0.00
2019-01-25T01:58:11.726Z,0.00
2019-01-25T01:59:11.672Z,0.00
2019-01-25T02:00:11.624Z,0.00
2019-01-25T02:01:11.589Z,0.00
2019-01-25T02:02:11.537Z,0.00
2019-01-25T02:03:11.495Z,0.00
2019-01-25T02:04:11.444Z,0.00
2019-01-25T02:05:11.398Z,0.00
2019-01-25T02:06:11.359Z,0.00
2019-01-25T02:07:11.306Z,0.00
2019-01-25T02:08:11.269Z,0.00
2019-01-25T02:09:11.235Z,0.00
2019-01-25T02:10:11.186Z,0.00
2019-01-25T02:11:11.124Z,0.00
2019-01-25T02:12:11.082Z,0.00
2019-01-25T02:13:11.041Z,0.00
2019-01-25T02:14:10.991Z,0.00
2019-01-25T02:15:10.946Z,0.00
2019-01-25T02:16:10.911Z,0.00
2019-01-25T02:17:10.860Z,0.00
2019-01-25T02:18:10.807Z,0.00
2019-01-25T02:19:10.796Z,0.00
2019-01-25T02:20:10.684Z,0.00
2019-01-25T02:21:10.686Z,0.00
2019-01-25T02:22:10.646Z,0.00
2019-01-25T02:23:10.587Z,0.00
2019-01-25T02:24:10.543Z,0.00
2019-01-25T02:25:10.503Z,0.00
2019-01-25T02:26:10.459Z,0.00
2019-01-25T02:27:10.405Z,0.00
2019-01-25T02:28:10.366Z,0.00
2019-01-25T02:29:10.323Z,0.00
2019-01-25T02:30:10.276Z,0.00
2019-01-25T02:31:10.228Z,0.00
2019-01-25T02:32:10.186Z,0.00
2019-01-25T02:33:10.132Z,0.00
2019-01-25T02:34:10.099Z,0.00
2019-01-25T02:35:10.046Z,0.00
2019-01-25T02:36:10.021Z,0.00
2019-01-25T02:37:09.964Z,0.00
2019-01-25T02:38:09.910Z,0.00
2019-01-25T02:39:09.868Z,0.00
2019-01-25T02:40:09.831Z,0.00
2019-01-25T02:41:09.779Z,0.00
2019-01-25T02:42:09.734Z,0.00
2019-01-25T02:43:09.682Z,0.00
2019-01-25T02:44:09.653Z,0.00
2019-01-25T02:45:09.600Z,0.00
2019-01-25T02:46:09.544Z,0.00
2019-01-25T02:47:09.495Z,0.00
2019-01-25T02:48:09.453Z,0.00
2019-01-25T02:49:09.414Z,0.00
2019-01-25T02:50:09.371Z,0.00
2019-01-25T02:51:09.324Z,0.00
2019-01-25T02:52:09.291Z,0.00
2019-01-25T02:53:09.244Z,0.00
2019-01-25T02:54:09.193Z,0.00
2019-01-25T02:55:09.146Z,0.00
2019-01-25T02:56:09.096Z,0.00
2019-01-25T02:57:09.049Z,0.00
2019-01-25T02:58:09.006Z,0.00
2019-01-25T02:59:08.969Z,0.00
2019-01-25T03:00:08.917Z,0.00
2019-01-25T03:01:08.894Z,0.00
2019-01-25T03:02:08.834Z,0.00
2019-01-25T03:03:08.786Z,0.00
2019-01-25T03:04:08.742Z,0.00
2019-01-25T03:05:08.703Z,0.00
2019-01-25T03:06:08.657Z,0.00
2019-01-25T03:07:08.594Z,0.00
2019-01-25T03:08:08.568Z,0.00
2019-01-25T03:09:08.505Z,0.00
2019-01-25T03:10:08.464Z,0.00
2019-01-25T03:11:08.430Z,0.00
2019-01-25T03:12:08.381Z,0.00
2019-01-25T03:13:08.332Z,0.00
2019-01-25T03:14:08.294Z,0.00
2019-01-25T03:15:08.241Z,0.00
2019-01-25T03:16:08.196Z,0.00
2019-01-25T03:17:08.147Z,0.00
2019-01-25T03:18:08.115Z,0.00
2019-01-25T03:19:08.058Z,0.00
2019-01-25T03:20:08.015Z,0.00
2019-01-25T03:21:07.980Z,0.00
2019-01-25T03:22:07.941Z,0.00
2019-01-25T03:23:07.881Z,0.00
2019-01-25T03:24:07.836Z,0.00
2019-01-25T03:25:07.796Z,0.00
2019-01-25T03:26:07.749Z,0.00
2019-01-25T03:27:07.716Z,0.00
2019-01-25T03:28:07.664Z,0.00
2019-01-25T03:29:07.621Z,0.00
2019-01-25T03:30:07.583Z,0.00
2019-01-25T03:31:07.529Z,0.00
2019-01-25T03:32:07.508Z,0.00
2019-01-25T03:33:07.435Z,0.00
2019-01-25T03:34:07.379Z,0.00
2019-01-25T03:35:07.338Z,0.00
2019-01-25T03:36:07.297Z,0.00
2019-01-25T03:37:07.244Z,0.00
2019-01-25T03:38:07.211Z,0.00
2019-01-25T03:39:07.154Z,0.00
2019-01-25T03:40:07.106Z,0.00
2019-01-25T03:41:07.063Z,0.00
2019-01-25T03:42:07.018Z,0.00
2019-01-25T03:43:06.978Z,0.00
2019-01-25T03:44:06.927Z,0.00
2019-01-25T03:45:06.898Z,0.00
2019-01-25T03:46:06.843Z,0.00
2019-01-25T03:47:06.805Z,0.00
2019-01-25T03:48:06.760Z,0.00
2019-01-25T03:49:06.711Z,0.00
2019-01-25T03:50:06.658Z,0.00
2019-01-25T03:51:06.604Z,0.00
2019-01-25T03:52:06.568Z,0.00
2019-01-25T03:53:06.540Z,0.00
2019-01-25T03:54:06.489Z,0.00
2019-01-25T03:55:06.435Z,0.00
2019-01-25T03:56:06.404Z,0.00
2019-01-25T03:57:06.363Z,0.00
2019-01-25T03:58:06.299Z,0.00
2019-01-25T03:59:06.267Z,0.00
2019-01-25T04:00:06.201Z,0.00
2019-01-25T04:01:06.166Z,0.00
2019-01-25T04:02:06.126Z,0.00
2019-01-25T04:03:06.068Z,0.00
2019-01-25T04:04:06.031Z,0.00
2019-01-25T04:05:05.993Z,0.00
2019-01-25T04:06:05.944Z,0.00
2019-01-25T04:07:05.923Z,0.00
2019-01-25T04:08:05.852Z,0.00
2019-01-25T04:09:05.810Z,0.00
2019-01-25T04:10:05.798Z,0.00
2019-01-25T04:11:05.709Z,0.00
2019-01-25T04:12:05.664Z,0.00
2019-01-25T04:13:05.622Z,0.00
2019-01-25T04:14:05.574Z,0.00
2019-01-25T04:15:05.531Z,0.00
2019-01-25T04:16:05.498Z,0.00
2019-01-25T04:17:05.447Z,0.00
2019-01-25T04:18:05.422Z,0.00
2019-01-25T04:19:05.350Z,0.00
2019-01-25T04:20:05.314Z,0.00
2019-01-25T04:21:05.321Z,0.00
2019-01-25T04:22:05.222Z,0.00
2019-01-25T04:23:05.174Z,0.00
2019-01-25T04:24:05.138Z,0.00
2019-01-25T04:25:05.082Z,0.00
2019-01-25T04:26:05.033Z,0.00
2019-01-25T04:27:04.989Z,0.00
2019-01-25T04:28:04.944Z,0.00
2019-01-25T04:29:04.897Z,0.00
2019-01-25T04:30:04.856Z,0.00
2019-01-25T04:31:04.819Z,0.00
2019-01-25T04:32:04.762Z,0.00
2019-01-25T04:33:04.730Z,0.00
2019-01-25T04:34:04.676Z,0.00
2019-01-25T04:35:04.632Z,0.00
2019-01-25T04:36:04.595Z,0.00
2019-01-25T04:37:04.543Z,0.00
2019-01-25T04:38:04.494Z,0.00
2019-01-25T04:39:04.456Z,0.00
2019-01-25T04:40:04.409Z,0.00
2019-01-25T04:41:11.512Z,0.00
2019-01-25T04:42:04.309Z,0.00
2019-01-25T04:43:04.275Z,0.00
2019-01-25T04:44:04.222Z,0.00
2019-01-25T04:45:04.181Z,0.00
2019-01-25T04:46:04.136Z,0.00
2019-01-25T04:47:04.087Z,0.00
2019-01-25T04:48:04.046Z,0.00
2019-01-25T04:49:03.990Z,0.00
2019-01-25T04:50:03.950Z,0.00
2019-01-25T04:51:03.915Z,0.00
2019-01-25T04:52:03.863Z,0.00
2019-01-25T04:53:03.811Z,0.00
2019-01-25T04:54:03.783Z,0.00
2019-01-25T04:55:03.726Z,0.00
2019-01-25T04:56:03.692Z,0.00
2019-01-25T04:57:03.637Z,0.00
2019-01-25T04:58:03.590Z,0.00
2019-01-25T04:59:03.553Z,0.00
2019-01-25T05:00:03.494Z,0.00
2019-01-25T05:01:03.458Z,0.00
2019-01-25T05:02:03.408Z,0.00
2019-01-25T05:03:03.368Z,0.00
2019-01-25T05:04:03.323Z,0.00
2019-01-25T05:05:03.278Z,0.00
2019-01-25T05:06:03.232Z,0.00
2019-01-25T05:07:03.189Z,0.00
2019-01-25T05:08:03.136Z,0.00
2019-01-25T05:09:03.091Z,0.00
2019-01-25T05:10:03.054Z,0.00
2019-01-25T05:11:03.015Z,0.00
2019-01-25T05:12:02.976Z,0.00
2019-01-25T05:13:02.913Z,0.00
2019-01-25T05:14:02.883Z,0.00
2019-01-25T05:15:02.819Z,0.00
2019-01-25T05:16:02.779Z,0.00
2019-01-25T05:17:02.742Z,0.00
2019-01-25T05:18:02.698Z,0.00
2019-01-25T05:19:02.644Z,0.00
2019-01-25T05:20:02.597Z,0.00
2019-01-25T05:21:02.558Z,0.00
2019-01-25T05:22:02.508Z,0.00
2019-01-25T05:23:02.466Z,0.00
2019-01-25T05:24:02.417Z,0.00
2019-01-25T05:25:02.371Z,0.00
2019-01-25T05:26:02.336Z,0.00
2019-01-25T05:27:02.289Z,0.00
2019-01-25T05:28:02.248Z,0.00
2019-01-25T05:29:02.208Z,0.00
2019-01-25T05:30:02.154Z,0.00
2019-01-25T05:31:02.107Z,0.00
2019-01-25T05:32:02.055Z,0.00
2019-01-25T05:33:02.021Z,0.00
2019-01-25T05:34:01.963Z,0.00
2019-01-25T05:35:01.932Z,0.00
2019-01-25T05:36:01.885Z,0.00
2019-01-25T05:37:01.834Z,0.00
2019-01-25T05:38:01.789Z,0.00
2019-01-25T05:39:01.743Z,0.00
2019-01-25T05:40:01.701Z,0.00
2019-01-25T05:41:01.662Z,0.00
2019-01-25T05:42:01.631Z,0.00
2019-01-25T05:43:01.598Z,0.00
2019-01-25T05:44:01.541Z,0.00
2019-01-25T05:45:01.471Z,0.00
2019-01-25T05:46:01.426Z,0.00
2019-01-25T05:47:01.374Z,0.00
2019-01-25T05:48:01.337Z,0.00
2019-01-25T05:49:01.289Z,0.00
2019-01-25T05:50:01.263Z,0.00
2019-01-25T05:51:01.200Z,0.00
2019-01-25T05:52:01.162Z,0.00
2019-01-25T05:53:01.113Z,0.00
2019-01-25T05:54:01.064Z,0.00
2019-01-25T05:55:01.023Z,0.00
2019-01-25T05:56:00.968Z,0.00
2019-01-25T05:57:00.941Z,0.00
2019-01-25T05:58:00.896Z,0.00
2019-01-25T05:59:00.840Z,0.00
2019-01-25T06:00:00.810Z,0.00
2019-01-25T06:01:00.745Z,0.00
2019-01-25T06:02:00.713Z,0.00
2019-01-25T06:03:00.662Z,0.00
2019-01-25T06:04:00.608Z,0.00
2019-01-25T06:05:00.569Z,0.00
2019-01-25T06:06:00.521Z,0.00
2019-01-25T06:07:00.475Z,0.00
2019-01-25T06:08:00.433Z,0.00
2019-01-25T06:09:00.390Z,0.00
2019-01-25T06:10:00.340Z,0.00
2019-01-25T06:11:00.304Z,0.00
2019-01-25T06:12:00.260Z,0.00
2019-01-25T06:13:00.210Z,0.00
2019-01-25T06:14:00.153Z,0.00
2019-01-25T06:15:00.201Z,0.00
2019-01-25T06:16:00.079Z,0.00
2019-01-25T06:17:00.024Z,0.00
2019-01-25T06:17:59.979Z,0.00
2019-01-25T06:18:59.941Z,0.00
2019-01-25T06:19:59.897Z,0.00
2019-01-25T06:20:59.860Z,0.00
2019-01-25T06:21:59.794Z,0.00
2019-01-25T06:22:59.759Z,0.00
2019-01-25T06:23:59.707Z,0.00
2019-01-25T06:24:59.660Z,0.00
2019-01-25T06:25:59.619Z,0.00
2019-01-25T06:26:59.577Z,0.00
2019-01-25T06:27:59.525Z,0.00
2019-01-25T06:28:59.507Z,0.00
2019-01-25T06:29:59.448Z,0.00
2019-01-25T06:30:59.397Z,0.00
2019-01-25T06:31:59.345Z,0.00
2019-01-25T06:32:59.299Z,0.00
2019-01-25T06:33:59.250Z,0.00
2019-01-25T06:34:59.216Z,0.00
2019-01-25T06:35:59.163Z,0.00
2019-01-25T06:36:59.125Z,0.00
2019-01-25T06:37:59.082Z,0.00
2019-01-25T06:38:59.031Z,0.00
2019-01-25T06:39:58.989Z,0.00
2019-01-25T06:40:58.944Z,0.00
2019-01-25T06:41:58.884Z,0.00
2019-01-25T06:42:58.849Z,0.00
2019-01-25T06:43:58.804Z,0.00
2019-01-25T06:44:58.760Z,0.00
2019-01-25T06:45:58.706Z,0.00
2019-01-25T06:46:58.665Z,0.00
2019-01-25T06:47:58.623Z,0.00
2019-01-25T06:48:58.578Z,0.00
2019-01-25T06:49:58.537Z,0.00
2019-01-25T06:50:58.508Z,0.00
2019-01-25T06:51:58.440Z,0.00
2019-01-25T06:52:58.408Z,0.00
2019-01-25T06:53:58.352Z,0.00
2019-01-25T06:54:58.328Z,0.00
2019-01-25T06:55:58.269Z,0.00
2019-01-25T06:56:58.216Z,0.00
2019-01-25T06:57:58.171Z,0.00
2019-01-25T06:58:58.120Z,0.00
2019-01-25T06:59:58.071Z,0.00
2019-01-25T07:00:58.032Z,0.00
2019-01-25T07:01:57.994Z,0.00
2019-01-25T07:02:57.941Z,0.00
2019-01-25T07:03:57.897Z,0.00
2019-01-25T07:04:57.852Z,0.00
2019-01-25T07:05:57.801Z,0.00
2019-01-25T07:06:57.762Z,0.00
2019-01-25T07:07:57.711Z,0.00
2019-01-25T07:08:57.669Z,0.00
2019-01-25T07:09:57.631Z,0.00
2019-01-25T07:10:57.586Z,0.00
2019-01-25T07:11:57.540Z,0.00
2019-01-25T07:12:57.491Z,0.00
2019-01-25T07:13:57.469Z,0.00
2019-01-25T07:14:57.395Z,0.00
2019-01-25T07:15:57.353Z,0.00
2019-01-25T07:16:57.317Z,0.00
2019-01-25T07:17:57.277Z,0.00
2019-01-25T07:18:57.212Z,0.00
2019-01-25T07:19:57.174Z,0.00
2019-01-25T07:20:57.123Z,0.00
2019-01-25T07:21:57.088Z,0.00
2019-01-25T07:22:57.047Z,0.00
2019-01-25T07:23:56.994Z,0.00
2019-01-25T07:24:57.367Z,0.00
2019-01-25T07:25:56.899Z,0.00
2019-01-25T07:26:56.854Z,0.00
2019-01-25T07:27:56.806Z,0.00
2019-01-25T07:28:56.765Z,0.00
2019-01-25T07:29:56.727Z,0.00
2019-01-25T07:30:56.670Z,0.00
2019-01-25T07:31:56.628Z,0.00
2019-01-25T07:32:56.594Z,0.00
2019-01-25T07:33:56.574Z,0.00
2019-01-25T07:34:56.492Z,0.00
2019-01-25T07:35:56.459Z,0.00
2019-01-25T07:36:56.419Z,0.00
2019-01-25T07:37:56.377Z,0.00
2019-01-25T07:38:56.343Z,0.00
2019-01-25T07:39:56.290Z,0.00
2019-01-25T07:40:56.322Z,0.00
2019-01-25T07:41:59.381Z,0.00
2019-01-25T07:42:56.138Z,0.00
2019-01-25T07:43:56.096Z,0.00
2019-01-25T07:44:56.186Z,0.00
2019-01-25T07:45:55.989Z,0.00
2019-01-25T07:46:55.952Z,0.00
2019-01-25T07:47:55.905Z,0.00
2019-01-25T07:48:55.862Z,0.00
2019-01-25T07:49:55.815Z,0.00
2019-01-25T07:50:55.785Z,0.00
2019-01-25T07:51:55.727Z,0.00
2019-01-25T07:52:55.697Z,0.00
2019-01-25T07:53:55.670Z,0.00
2019-01-25T07:54:55.630Z,0.00
2019-01-25T07:55:55.568Z,0.00
2019-01-25T07:56:55.528Z,0.00
2019-01-25T07:57:55.466Z,0.00
2019-01-25T07:58:55.400Z,0.00
2019-01-25T07:59:55.373Z,0.00
2019-01-25T08:00:55.312Z,0.00
2019-01-25T08:01:55.282Z,0.00
2019-01-25T08:02:55.243Z,0.00
2019-01-25T08:03:55.185Z,0.00
2019-01-25T08:04:55.137Z,0.00
2019-01-25T08:05:55.085Z,0.00
2019-01-25T08:06:55.038Z,0.00
2019-01-25T08:07:55.003Z,0.00
2019-01-25T08:08:54.948Z,0.00
2019-01-25T08:09:54.956Z,0.00
2019-01-25T08:10:54.910Z,0.00
2019-01-25T08:11:54.813Z,0.00
2019-01-25T08:12:54.789Z,0.00
2019-01-25T08:13:54.749Z,0.00
2019-01-25T08:14:54.677Z,0.00
2019-01-25T08:15:54.662Z,0.00
2019-01-25T08:16:54.599Z,0.00
2019-01-25T08:17:54.571Z,0.00
2019-01-25T08:18:54.525Z,0.00
2019-01-25T08:19:54.530Z,0.00
2019-01-25T08:20:54.420Z,0.00
2019-01-25T08:21:54.393Z,0.00
2019-01-25T08:22:54.325Z,0.00
2019-01-25T08:23:54.285Z,0.00
2019-01-25T08:24:54.266Z,0.00
2019-01-25T08:25:54.190Z,0.00
2019-01-25T08:26:54.217Z,0.00
2019-01-25T08:27:54.119Z,0.00
2019-01-25T08:28:54.090Z,0.00
2019-01-25T08:29:54.018Z,0.00
2019-01-25T08:30:54.016Z,0.00
2019-01-25T08:31:53.945Z,0.00
2019-01-25T08:32:53.891Z,0.00
2019-01-25T08:33:53.839Z,0.00
2019-01-25T08:34:53.820Z,0.00
2019-01-25T08:35:53.751Z,0.00
2019-01-25T08:36:53.693Z,0.00
2019-01-25T08:37:53.665Z,0.00
2019-01-25T08:38:53.589Z,0.00
2019-01-25T08:39:53.582Z,0.00
2019-01-25T08:40:53.869Z,0.00
2019-01-25T08:41:53.510Z,0.00
2019-01-25T08:42:53.453Z,0.00
2019-01-25T08:43:53.360Z,0.00
2019-01-25T08:44:53.492Z,0.00
2019-01-25T08:45:53.335Z,0.00
2019-01-25T08:46:53.263Z,0.00
2019-01-25T08:47:53.185Z,0.00
2019-01-25T08:48:53.147Z,0.00
2019-01-25T08:49:57.821Z,0.00
2019-01-25T08:50:53.056Z,0.00
2019-01-25T08:51:53.051Z,0.00
2019-01-25T08:52:52.956Z,0.00
2019-01-25T08:53:52.981Z,0.00
2019-01-25T08:54:52.937Z,0.00
2019-01-25T08:55:52.826Z,0.00
2019-01-25T08:56:52.789Z,0.00
2019-01-25T08:57:52.745Z,0.00
2019-01-25T08:58:52.693Z,5.63
2019-01-25T08:59:52.642Z,5.63
2019-01-25T09:00:52.612Z,5.63
2019-01-25T09:01:52.555Z,5.63
2019-01-25T09:02:52.501Z,5.63
2019-01-25T09:03:52.462Z,5.63
2019-01-25T09:04:52.424Z,0.00
2019-01-25T09:05:52.362Z,5.63
2019-01-25T09:06:52.328Z,5.63
2019-01-25T09:07:52.284Z,5.63
2019-01-25T09:08:52.235Z,5.63
2019-01-25T09:09:52.193Z,5.63
2019-01-25T09:10:52.140Z,5.63
2019-01-25T09:11:52.087Z,5.63
2019-01-25T09:12:52.045Z,5.63
2019-01-25T09:13:52.008Z,5.63
2019-01-25T09:14:51.967Z,5.63
2019-01-25T09:15:51.926Z,5.63
2019-01-25T09:16:51.869Z,5.63
2019-01-25T09:17:51.832Z,5.63
2019-01-25T09:18:51.780Z,5.63
2019-01-25T09:19:51.724Z,5.63
2019-01-25T09:20:51.689Z,5.63
2019-01-25T09:21:51.645Z,5.63
2019-01-25T09:22:51.605Z,5.63
2019-01-25T09:23:51.548Z,5.63
2019-01-25T09:24:51.512Z,5.63
2019-01-25T09:25:51.468Z,5.63
2019-01-25T09:26:51.423Z,5.63
2019-01-25T09:27:51.367Z,5.63
2019-01-25T09:28:51.323Z,5.63
2019-01-25T09:29:51.276Z,5.63
2019-01-25T09:30:51.245Z,5.63
2019-01-25T09:31:51.184Z,5.63
2019-01-25T09:32:51.145Z,5.63
2019-01-25T09:33:51.101Z,5.63
2019-01-25T09:34:51.048Z,5.63
2019-01-25T09:35:51.014Z,0.00
2019-01-25T09:36:51.002Z,0.00
2019-01-25T09:37:50.919Z,0.00
2019-01-25T09:38:50.864Z,0.00
2019-01-25T09:39:50.832Z,0.00
2019-01-25T09:40:50.781Z,5.63
2019-01-25T09:41:50.740Z,5.63
2019-01-25T09:42:50.682Z,5.63
2019-01-25T09:43:50.652Z,5.63
2019-01-25T09:44:50.595Z,5.63
2019-01-25T09:45:50.550Z,5.63
2019-01-25T09:46:50.514Z,5.63
2019-01-25T09:47:50.462Z,5.63
2019-01-25T09:48:50.426Z,5.63
2019-01-25T09:49:50.369Z,5.63
2019-01-25T09:50:52.945Z,5.63
2019-01-25T09:51:50.286Z,5.63
2019-01-25T09:52:50.241Z,5.63
2019-01-25T09:53:50.193Z,5.63
2019-01-25T09:54:50.149Z,5.63
2019-01-25T09:55:50.099Z,5.63
2019-01-25T09:56:50.054Z,5.63
2019-01-25T09:57:50.017Z,5.63
2019-01-25T09:58:49.971Z,11.25
2019-01-25T09:59:49.928Z,11.25
2019-01-25T10:00:49.876Z,11.25
2019-01-25T10:01:49.833Z,11.25
2019-01-25T10:02:49.782Z,11.25
2019-01-25T10:03:49.744Z,16.88
2019-01-25T10:04:49.696Z,16.88
2019-01-25T10:05:49.639Z,16.88
2019-01-25T10:06:49.594Z,16.88
2019-01-25T10:07:49.567Z,16.88
2019-01-25T10:08:49.501Z,22.50
2019-01-25T10:09:49.461Z,28.13
2019-01-25T10:10:49.421Z,39.38
2019-01-25T10:11:49.377Z,39.38
2019-01-25T10:12:49.328Z,45.00
2019-01-25T10:13:49.281Z,39.38
2019-01-25T10:14:49.243Z,45.00
2019-01-25T10:15:49.195Z,50.63
2019-01-25T10:16:49.151Z,45.00
2019-01-25T10:17:49.100Z,45.00
2019-01-25T10:18:49.060Z,45.00
2019-01-25T10:19:49.015Z,45.00
2019-01-25T10:20:48.959Z,45.00
2019-01-25T10:21:48.917Z,45.00
2019-01-25T10:22:48.881Z,45.00
2019-01-25T10:23:48.838Z,56.25
2019-01-25T10:24:48.784Z,61.88
2019-01-25T10:25:48.741Z,56.25
2019-01-25T10:26:48.696Z,56.25
2019-01-25T10:27:48.648Z,67.50
2019-01-25T10:28:48.615Z,67.50
2019-01-25T10:29:48.566Z,67.50
2019-01-25T10:30:48.514Z,67.50
2019-01-25T10:31:48.465Z,67.50
2019-01-25T10:32:48.418Z,67.50
2019-01-25T10:33:48.381Z,78.75
2019-01-25T10:34:48.338Z,90.00
2019-01-25T10:35:48.282Z,123.75
2019-01-25T10:36:48.240Z,90.00
2019-01-25T10:37:48.199Z,90.00
2019-01-25T10:38:48.166Z,101.25
2019-01-25T10:39:48.109Z,84.38
2019-01-25T10:40:48.060Z,67.50
2019-01-25T10:41:48.016Z,67.50
2019-01-25T10:42:53.048Z,78.75
2019-01-25T10:43:47.948Z,180.00
2019-01-25T10:44:47.902Z,1113.75
2019-01-25T10:45:47.834Z,1141.88
2019-01-25T10:46:47.798Z,95.63
2019-01-25T10:47:47.746Z,123.75
2019-01-25T10:48:47.700Z,90.00
2019-01-25T10:49:47.658Z,67.50
2019-01-25T10:50:47.608Z,67.50
2019-01-25T10:51:47.570Z,67.50
2019-01-25T10:52:47.531Z,78.75
2019-01-25T10:53:47.486Z,101.25
2019-01-25T10:54:47.430Z,112.50
2019-01-25T10:55:47.396Z,118.13
2019-01-25T10:56:47.340Z,101.25
2019-01-25T10:57:47.301Z,90.00
2019-01-25T10:58:47.261Z,84.38
2019-01-25T10:59:47.217Z,84.38
2019-01-25T11:00:47.170Z,84.38
2019-01-25T11:01:47.144Z,84.38
2019-01-25T11:02:47.089Z,84.38
2019-01-25T11:03:47.037Z,84.38
2019-01-25T11:04:46.998Z,90.00
2019-01-25T11:05:46.977Z,95.63
2019-01-25T11:06:46.904Z,95.63
2019-01-25T11:07:46.866Z,84.38
2019-01-25T11:08:46.818Z,73.13
2019-01-25T11:09:46.790Z,73.13
2019-01-25T11:10:46.731Z,78.75
2019-01-25T11:11:46.681Z,90.00
2019-01-25T11:12:46.644Z,106.88
2019-01-25T11:13:46.591Z,129.38
2019-01-25T11:14:46.553Z,157.50
2019-01-25T11:15:46.520Z,163.13
2019-01-25T11:16:46.455Z,151.88
2019-01-25T11:17:46.407Z,163.13
2019-01-25T11:18:46.374Z,168.75
2019-01-25T11:19:46.312Z,163.13
2019-01-25T11:20:46.275Z,146.25
2019-01-25T11:21:46.227Z,146.25
2019-01-25T11:22:46.189Z,151.88
2019-01-25T11:23:46.144Z,146.25
2019-01-25T11:24:46.095Z,146.25
2019-01-25T11:25:46.066Z,135.00
2019-01-25T11:26:46.007Z,118.13
2019-01-25T11:27:45.965Z,106.88
2019-01-25T11:28:45.911Z,106.88
2019-01-25T11:29:45.872Z,101.25
2019-01-25T11:30:45.831Z,106.88
2019-01-25T11:31:45.777Z,106.88
2019-01-25T11:32:45.742Z,106.88
2019-01-25T11:33:45.700Z,106.88
2019-01-25T11:34:45.653Z,106.88
2019-01-25T11:35:45.607Z,106.88
2019-01-25T11:36:45.568Z,106.88
2019-01-25T11:37:45.514Z,101.25
2019-01-25T11:38:45.474Z,95.63
2019-01-25T11:39:49.171Z,95.63
2019-01-25T11:40:45.394Z,95.63
2019-01-25T11:41:45.343Z,95.63
2019-01-25T11:42:45.303Z,95.63
2019-01-25T11:43:45.252Z,90.00
2019-01-25T11:44:45.215Z,84.38
2019-01-25T11:45:45.167Z,78.75
2019-01-25T11:46:45.114Z,73.13
2019-01-25T11:47:45.080Z,73.13
2019-01-25T11:48:45.042Z,67.50
2019-01-25T11:49:44.983Z,56.25
2019-01-25T11:50:44.945Z,56.25
2019-01-25T11:51:44.899Z,50.63
2019-01-25T11:52:44.852Z,50.63
2019-01-25T11:53:44.805Z,50.63
2019-01-25T11:54:44.764Z,50.63
2019-01-25T11:55:44.714Z,50.63
2019-01-25T11:56:44.670Z,50.63
2019-01-25T11:57:44.623Z,50.63
2019-01-25T11:58:44.589Z,45.00
2019-01-25T11:59:44.536Z,39.38
2019-01-25T12:00:44.503Z,33.75
2019-01-25T12:01:44.456Z,39.38
2019-01-25T12:02:44.412Z,39.38
2019-01-25T12:03:44.367Z,39.38
2019-01-25T12:04:44.322Z,45.00
2019-01-25T12:05:44.268Z,45.00
2019-01-25T12:06:44.234Z,50.63
2019-01-25T12:07:44.179Z,56.25
2019-01-25T12:08:44.150Z,56.25
2019-01-25T12:09:44.094Z,61.88
2019-01-25T12:10:44.048Z,67.50
2019-01-25T12:11:44.008Z,67.50
2019-01-25T12:12:43.986Z,78.75
2019-01-25T12:13:43.918Z,84.38
2019-01-25T12:14:43.874Z,95.63
2019-01-25T12:15:43.834Z,112.50
2019-01-25T12:16:43.781Z,123.75
2019-01-25T12:17:43.747Z,140.63
2019-01-25T12:18:43.687Z,151.88
2019-01-25T12:19:43.653Z,151.88
2019-01-25T12:20:43.600Z,157.50
2019-01-25T12:21:43.557Z,174.38
2019-01-25T12:22:43.517Z,185.63
2019-01-25T12:23:43.470Z,174.38
2019-01-25T12:24:43.434Z,151.88
2019-01-25T12:25:43.380Z,140.63
2019-01-25T12:26:45.001Z,140.63
2019-01-25T12:27:43.298Z,146.25
2019-01-25T12:28:43.242Z,146.25
2019-01-25T12:29:43.196Z,151.88
2019-01-25T12:30:43.156Z,163.13
2019-01-25T12:31:43.118Z,163.13
2019-01-25T12:32:43.067Z,168.75
2019-01-25T12:33:43.020Z,174.38
2019-01-25T12:34:42.977Z,185.63
2019-01-25T12:35:42.943Z,180.00
2019-01-25T12:36:42.886Z,168.75
2019-01-25T12:37:42.855Z,168.75
2019-01-25T12:38:42.797Z,168.75
2019-01-25T12:39:42.766Z,157.50
2019-01-25T12:40:42.839Z,163.13
2019-01-25T12:41:42.670Z,174.38
2019-01-25T12:42:42.633Z,185.63
2019-01-25T12:43:42.583Z,208.13
2019-01-25T12:44:42.544Z,230.63
2019-01-25T12:45:42.492Z,247.50
2019-01-25T12:46:42.447Z,258.75
2019-01-25T12:47:42.393Z,258.75
2019-01-25T12:48:42.367Z,264.38
2019-01-25T12:49:42.315Z,258.75
2019-01-25T12:50:42.275Z,253.13
2019-01-25T12:51:42.234Z,253.13
2019-01-25T12:52:42.130Z,241.88
2019-01-25T12:53:42.147Z,247.50
2019-01-25T12:54:42.116Z,253.13
2019-01-25T12:55:42.053Z,253.13
2019-01-25T12:56:42.005Z,247.50
2019-01-25T12:57:41.964Z,247.50
2019-01-25T12:58:41.924Z,236.25
2019-01-25T12:59:41.872Z,225.00
2019-01-25T13:00:41.837Z,230.63
2019-01-25T13:01:41.784Z,236.25
2019-01-25T13:02:41.744Z,247.50
2019-01-25T13:03:41.700Z,264.38
2019-01-25T13:04:41.659Z,270.00
2019-01-25T13:05:43.276Z,247.50
2019-01-25T13:06:41.586Z,230.63
2019-01-25T13:07:41.526Z,208.13
2019-01-25T13:08:41.479Z,196.88